Maggie Valley, NC

5:26 AM EST on January 28, 2015 (GMT -0500)
Laurel Ridge | Change Station
CLOSE
Current Station
Personal Weather Station
Location: Maggie Valley, NC
Elevation: 3894 ft
Nearby Weather Stations

Elev 3894 ft 35.53 °N, 83.06 °W | Updated 2 minutes ago

Clear
Clear
15.8 °F
Feels Like 16 °F
N
0.0
Wind Variable Wind from West

Today
High -- | Low -- °F
--% Chance of Precip.
Yesterday
High -- | Low -- °F
Precip. -- in
7:35 AM 5:55 PM
Waxing Gibbous, 63% visible
Pressure 30.12 in
Visibility 10.0 miles
Clouds Clear
Windchill 16 °F
Dew Point 15 °F
Humidity 96%
Rainfall 0.00 in
Snow Depth Not available.
UV 0 out of 12
Pollen .90 out of 12
Air Quality Not available.
Flu Activity Not available.
METAR KAVL 280954Z AUTO 36013G25KT 10SM CLR M05/M09 A3008 RMK AO2 PK WND 35029/0921 SLP200 T10501094

More Conditions Fewer Conditions

Pressure 30.12 in
Visibility 10.0 miles
Clouds Clear
Windchill 16 °F
Dew Point 15 °F
Humidity 96%
Rainfall 0.00 in
Snow Depth Not available.
UV 0 out of 12
Pollen .90 out of 12
Air Quality Not available.
Flu Activity Not available.
METAR KAVL 280954Z AUTO 36013G25KT 10SM CLR M05/M09 A3008 RMK AO2 PK WND 35029/0921 SLP200 T10501094

More Conditions Fewer Conditions

10-Day Weather Forecast

Almanac

Astronomy

Jan. 28, 2015 Rise Set
Actual Time
Civil Twilight
Nautical Twilight
Astronomical Twilight
Moon
Length of Visible Light
Length of Day
Tomorrow will be .
, % of the Moon is Illuminated

Today's Extremes

State Highs State Lows

Community

WunderPhotos

Upload Photos

1,791,121 photos uploaded!

WunderBlogs® & News

Nearby

Air Quality

  Air Quality AQ Index Pollutant
Not available.

Snow Depth

Station Depth Elevation

Earthquake Activity

City Distance Mag. Time & Date
Minimum magnitude displayed is 2.5.

Coastal Water Temperatures

Place Temperature

Nearby Weather Stations